createdAt,value
2019-02-16T00:01:22.630Z,589.08
2019-02-16T00:07:53.578Z,593.15
2019-02-16T00:14:24.283Z,602.90
2019-02-16T00:21:03.720Z,595.17
2019-02-16T00:24:21.222Z,584.08
2019-02-16T00:30:51.987Z,601.48
2019-02-16T00:33:40.213Z,594.47
2019-02-16T00:40:10.598Z,592.12
2019-02-16T00:43:34.824Z,598.65
2019-02-16T00:50:05.813Z,592.03
2019-02-16T00:53:30.023Z,584.58
2019-02-16T00:56:00.021Z,581.15
2019-02-16T01:02:30.950Z,593.42
2019-02-16T01:09:01.368Z,584.90
2019-02-16T01:15:32.424Z,569.50
2019-02-16T01:18:56.817Z,577.10
2019-02-16T01:25:27.586Z,577.35
2019-02-16T01:28:51.973Z,582.17
2019-02-16T01:35:22.156Z,586.55
2019-02-16T01:38:47.829Z,584.35
2019-02-16T01:41:18.230Z,591.38
2019-02-16T01:44:42.303Z,588.45
2019-02-16T01:51:13.543Z,585.48
2019-02-16T01:57:44.865Z,587.80
2019-02-16T02:04:15.425Z,581.47
2019-02-16T02:10:46.716Z,599.07
2019-02-16T02:14:10.951Z,591.60
2019-02-16T02:20:41.865Z,600.25
2019-02-16T02:24:06.283Z,589.00
2019-02-16T02:30:37.133Z,586.90
2019-02-16T02:34:01.623Z,592.55
2019-02-16T02:40:32.699Z,586.70
2019-02-16T02:43:56.901Z,585.23
2019-02-16T02:50:27.748Z,591.20
2019-02-16T02:53:51.978Z,589.52
2019-02-16T03:00:22.890Z,599.12
2019-02-16T03:06:53.843Z,589.02
2019-02-16T03:10:18.606Z,601.05
2019-02-16T03:16:49.417Z,581.17
2019-02-16T03:20:14.033Z,576.82
2019-02-16T03:26:56.648Z,587.12
2019-02-16T03:30:21.061Z,581.75
2019-02-16T03:37:28.305Z,584.63
2019-02-16T03:40:52.599Z,576.35
2019-02-16T03:47:23.297Z,581.37
2019-02-16T03:50:47.602Z,576.52
2019-02-16T03:57:18.405Z,579.10
2019-02-16T04:03:49.255Z,580.90
2019-02-16T04:10:20.076Z,572.98
2019-02-16T04:16:50.892Z,575.62
2019-02-16T04:23:21.016Z,564.50
2019-02-16T04:26:45.399Z,560.40
2019-02-16T04:33:16.651Z,569.95
2019-02-16T04:39:47.623Z,555.92
2019-02-16T04:43:11.871Z,548.13
2019-02-16T04:49:42.347Z,547.30
2019-02-16T04:53:06.907Z,542.72
2019-02-16T04:59:37.642Z,534.08
2019-02-16T05:02:51.712Z,527.92
2019-02-16T05:05:21.729Z,532.62
2019-02-16T05:11:52.078Z,533.80
2019-02-16T05:18:22.425Z,543.17
2019-02-16T05:21:46.629Z,524.90
2019-02-16T05:28:17.199Z,539.80
2019-02-16T05:34:46.958Z,541.17
2019-02-16T05:41:17.436Z,544.42
2019-02-16T05:47:48.405Z,507.35
2019-02-16T05:54:19.400Z,511.77
2019-02-16T05:57:44.206Z,499.13
2019-02-16T06:04:15.061Z,512.50
2019-02-16T06:10:45.669Z,498.97
2019-02-16T06:17:16.169Z,570.73
2019-02-16T06:23:46.757Z,624.75
2019-02-16T06:27:11.383Z,616.45
2019-02-16T06:33:42.031Z,618.17
2019-02-16T06:40:12.306Z,603.23
2019-02-16T06:43:36.946Z,595.43
2019-02-16T06:50:07.663Z,593.57
2019-02-16T06:56:39.808Z,591.42
2019-02-16T07:03:10.871Z,586.12
2019-02-16T07:05:40.990Z,575.92
2019-02-16T07:52:28.488Z,587.35
2019-02-16T08:00:01.588Z,609.52
2019-02-16T08:06:45.817Z,597.67
2019-02-16T08:09:48.565Z,591.23
2019-02-16T08:12:40.158Z,601.37
2019-02-16T08:15:25.154Z,590.70
2019-02-16T08:22:07.829Z,599.42
2019-02-16T08:29:33.084Z,605.33
2019-02-16T08:36:22.673Z,605.27
2019-02-16T08:43:01.961Z,600.38
2019-02-16T08:49:46.012Z,603.30
2019-02-16T08:56:27.839Z,617.70
2019-02-16T08:58:59.628Z,613.00
2019-02-16T09:02:23.943Z,618.00
2019-02-16T09:09:05.594Z,643.40
2019-02-16T09:12:00.066Z,641.40
2019-02-16T09:18:35.012Z,646.17
2019-02-16T09:25:16.936Z,637.67
2019-02-16T09:28:43.490Z,627.83
2019-02-16T09:35:30.878Z,638.42
2019-02-16T09:42:15.467Z,644.42
2019-02-16T09:45:42.113Z,633.75
2019-02-16T09:52:22.122Z,629.67
2019-02-16T09:58:56.415Z,653.12
2019-02-16T10:02:22.355Z,648.08
2019-02-16T10:09:05.822Z,637.60
2019-02-16T10:11:42.108Z,629.40
2019-02-16T10:18:28.134Z,639.63
2019-02-16T10:21:10.415Z,628.95
2019-02-16T10:24:35.267Z,639.13
2019-02-16T10:31:07.884Z,634.55
2019-02-16T10:37:59.517Z,657.02
2019-02-16T10:44:32.489Z,652.55
2019-02-16T10:51:05.605Z,645.83
2019-02-16T10:54:33.654Z,644.80
2019-02-16T11:01:17.467Z,669.58
2019-02-16T11:11:25.896Z,686.75
2019-02-16T11:47:33.367Z,758.33
2019-02-16T11:50:10.650Z,773.80
2019-02-16T11:57:05.111Z,783.80
2019-02-16T12:00:29.803Z,778.33
2019-02-16T12:07:04.223Z,789.58
2019-02-16T12:13:45.034Z,772.58
2019-02-16T12:17:10.651Z,782.83
2019-02-16T12:23:43.924Z,778.40
2019-02-16T12:27:08.965Z,788.95
2019-02-16T12:33:57.433Z,816.65
2019-02-16T12:36:41.082Z,817.55
2019-02-16T12:40:06.279Z,823.78
2019-02-16T12:42:37.952Z,835.63
2019-02-16T12:49:21.728Z,848.50
2019-02-16T12:52:47.693Z,843.00
2019-02-16T12:59:25.555Z,857.15
2019-02-16T13:02:50.126Z,858.70
2019-02-16T13:09:22.344Z,856.20
2019-02-16T13:15:55.556Z,854.65
2019-02-16T13:19:20.099Z,865.08
2019-02-16T13:26:01.745Z,864.93
2019-02-16T13:32:33.906Z,885.00
2019-02-16T13:39:24.629Z,888.87
2019-02-16T13:42:02.453Z,885.62
2019-02-16T13:44:50.459Z,887.33
2019-02-16T13:51:26.426Z,891.77
2019-02-16T13:54:50.637Z,896.20
2019-02-16T14:01:30.158Z,899.35
2019-02-16T14:08:11.994Z,905.35
2019-02-16T14:11:36.578Z,908.68
2019-02-16T14:18:08.562Z,909.52
2019-02-16T14:24:53.043Z,914.67
2019-02-16T14:28:20.621Z,897.33
2019-02-16T14:34:51.671Z,900.92
2019-02-16T14:38:16.458Z,897.48
2019-02-16T14:44:49.368Z,905.63
2019-02-16T14:51:20.097Z,891.92
2019-02-16T14:54:44.678Z,894.15
2019-02-16T15:01:15.682Z,876.73
2019-02-16T15:04:40.039Z,883.23
2019-02-16T15:11:11.067Z,890.95
2019-02-16T15:17:43.211Z,870.10
2019-02-16T15:21:07.624Z,874.10
2019-02-16T15:27:38.477Z,887.33
2019-02-16T15:31:02.927Z,894.25
2019-02-16T15:38:20.634Z,875.45
2019-02-16T15:44:50.898Z,874.38
2019-02-16T15:48:14.997Z,871.07
2019-02-16T15:54:45.681Z,875.42
2019-02-16T15:58:09.554Z,869.00
2019-02-16T16:04:39.188Z,854.57
2019-02-16T16:11:11.032Z,840.08
2019-02-16T16:17:43.431Z,832.92
2019-02-16T16:21:07.932Z,823.75
2019-02-16T16:27:42.769Z,824.60
2019-02-16T16:31:07.553Z,809.80
2019-02-16T16:37:49.785Z,801.50
2019-02-16T16:44:25.854Z,783.47
2019-02-16T16:47:15.674Z,771.40
2019-02-16T16:54:08.924Z,758.20
2019-02-16T17:00:57.213Z,767.35
2019-02-16T17:07:33.871Z,765.77
2019-02-16T17:10:58.986Z,772.00
2019-02-16T17:17:48.368Z,744.17
2019-02-16T17:24:24.497Z,738.65
2019-02-16T17:26:56.407Z,737.77
2019-02-16T17:33:46.795Z,739.27
2019-02-16T17:40:20.213Z,733.35
2019-02-16T17:42:55.482Z,727.67
2019-02-16T17:49:28.411Z,728.65
2019-02-16T17:56:00.872Z,723.23
2019-02-16T18:02:49.142Z,717.92
2019-02-16T18:06:08.965Z,720.15
2019-02-16T18:12:44.141Z,714.60
2019-02-16T18:19:24.068Z,721.53
2019-02-16T18:25:56.924Z,730.13
2019-02-16T18:32:32.842Z,722.65
2019-02-16T18:35:57.794Z,717.03
2019-02-16T18:42:30.186Z,735.65
2019-02-16T18:49:20.416Z,722.40
2019-02-16T18:55:58.844Z,714.95
2019-02-16T19:02:37.169Z,725.60
2019-02-16T19:05:23.512Z,727.42
2019-02-16T19:12:04.864Z,726.33
2019-02-16T19:15:30.169Z,721.70
2019-02-16T19:22:02.654Z,706.95
2019-02-16T19:28:53.652Z,718.85
2019-02-16T19:32:19.130Z,715.98
2019-02-16T19:38:58.132Z,716.15
2019-02-16T19:45:33.869Z,719.75
2019-02-16T19:48:57.015Z,725.90
2019-02-16T19:52:04.580Z,726.27
2019-02-16T19:58:57.047Z,712.50
2019-02-16T20:05:44.539Z,711.30
2019-02-16T20:12:30.995Z,709.25
2019-02-16T20:19:05.210Z,718.73
2019-02-16T20:29:51.731Z,731.95
2019-02-16T20:36:33.631Z,723.55
2019-02-16T20:43:16.757Z,703.90
2019-02-16T20:50:15.591Z,723.13
2019-02-16T22:37:58.368Z,663.25
2019-02-16T23:08:25.603Z,684.60
2019-02-16T23:10:55.401Z,654.58
2019-02-16T23:13:25.165Z,658.07
2019-02-16T23:15:54.999Z,653.67
2019-02-16T23:18:24.616Z,667.75
2019-02-16T23:20:54.344Z,655.00
2019-02-16T23:23:24.318Z,649.00
2019-02-16T23:25:53.911Z,653.48
2019-02-16T23:28:24.236Z,648.15
2019-02-16T23:30:53.984Z,652.97
2019-02-16T23:33:23.677Z,645.00
2019-02-16T23:35:53.403Z,645.33
2019-02-16T23:38:23.093Z,647.50
2019-02-16T23:40:52.836Z,645.75
2019-02-16T23:43:22.610Z,650.72
2019-02-16T23:45:55.835Z,639.75
2019-02-16T23:48:25.587Z,642.70
2019-02-16T23:50:55.271Z,645.10
2019-02-16T23:53:24.955Z,650.70
2019-02-16T23:55:54.549Z,649.52
2019-02-16T23:58:24.233Z,656.10
